Water Valley, Texas
Current Conditions -  °F | °C
As of 10:51 AM on Wednesday 26 Nov 2014 (Local Time) from KSJT Reporting Station
Clear Clear  
Wind Chill: 63°   Ceiling: Unl
Heat Index: 63°   Visibility: 10mi
Dew Point: 21°   Wind: 13mph
Humidity: 20%   Direction: 340°NNW
Pressure: 30.24"   Gusts: 17mph
Location:  31.67°N, 100.72°W
Report Text: KSJT 261651Z 34011G15KT 10SM CLR 17/M06 A3024 RMK AO2 SLP239 T01721061
Loading
Personal Weather Stations






























Interactive Weather Map New forecast layout! Learn more

10-Day Weather Forecast

Advertisements
Track Severe Weather on mobile